Aviation Digital Data Service (ADDS)

Output produced by METARs form (1430 UTC 28 November 2014)
found at http://aviationweather.gov/adds/metars/
 
KBWI 281138Z 2812/2918 30011KT P6SM FEW040 
     FM281300 32012G20KT P6SM SCT100 
     FM282200 30006KT P6SM FEW100 
     FM290100 00000KT P6SM SCT100 
     FM290200 00000KT P6SM BKN090 
     FM291400 16006KT P6SM BKN070